sensor_id;sensor_type;location;lat;lon;timestamp;pressure;altitude;pressure_sealevel;temperature;humidity
73817;BME280;62146;53.232;-1.304;2023-05-24T00:01:31;101432.69;;;12.74;100.00
73817;BME280;62146;53.232;-1.304;2023-05-24T00:03:57;101440.53;;;12.69;100.00
73817;BME280;62146;53.232;-1.304;2023-05-24T00:06:26;101429.88;;;12.69;100.00
73817;BME280;62146;53.232;-1.304;2023-05-24T00:08:53;101436.34;;;12.61;100.00
73817;BME280;62146;53.232;-1.304;2023-05-24T00:11:20;101437.84;;;12.57;100.00
73817;BME280;62146;53.232;-1.304;2023-05-24T00:13:48;101444.66;;;12.54;100.00
73817;BME280;62146;53.232;-1.304;2023-05-24T00:16:14;101434.91;;;12.48;100.00
73817;BME280;62146;53.232;-1.304;2023-05-24T00:18:41;101436.19;;;12.45;100.00
73817;BME280;62146;53.232;-1.304;2023-05-24T00:21:13;101435.44;;;12.38;100.00
73817;BME280;62146;53.232;-1.304;2023-05-24T00:23:40;101439.13;;;12.37;100.00
73817;BME280;62146;53.232;-1.304;2023-05-24T00:26:07;101436.47;;;12.37;100.00
73817;BME280;62146;53.232;-1.304;2023-05-24T00:28:34;101432.63;;;12.33;100.00
73817;BME280;62146;53.232;-1.304;2023-05-24T00:31:02;101432.50;;;12.29;100.00
73817;BME280;62146;53.232;-1.304;2023-05-24T00:33:28;101432.94;;;12.26;100.00
73817;BME280;62146;53.232;-1.304;2023-05-24T00:35:55;101436.28;;;12.21;100.00
73817;BME280;62146;53.232;-1.304;2023-05-24T00:38:23;101430.03;;;12.16;100.00
73817;BME280;62146;53.232;-1.304;2023-05-24T00:40:50;101419.84;;;12.13;100.00
73817;BME280;62146;53.232;-1.304;2023-05-24T00:43:17;101423.75;;;12.10;100.00
73817;BME280;62146;53.232;-1.304;2023-05-24T00:45:44;101416.44;;;12.06;100.00
73817;BME280;62146;53.232;-1.304;2023-05-24T00:48:11;101422.88;;;11.99;100.00
73817;BME280;62146;53.232;-1.304;2023-05-24T00:50:39;101423.13;;;11.97;100.00
73817;BME280;62146;53.232;-1.304;2023-05-24T00:53:07;101420.91;;;11.94;100.00
73817;BME280;62146;53.232;-1.304;2023-05-24T00:55:34;101431.16;;;11.91;100.00
73817;BME280;62146;53.232;-1.304;2023-05-24T00:58:04;101431.84;;;11.86;100.00
73817;BME280;62146;53.232;-1.304;2023-05-24T01:00:31;101431.91;;;11.80;100.00
73817;BME280;62146;53.232;-1.304;2023-05-24T01:02:57;101425.78;;;11.79;100.00
73817;BME280;62146;53.232;-1.304;2023-05-24T01:05:26;101414.34;;;11.79;100.00
73817;BME280;62146;53.232;-1.304;2023-05-24T01:08:10;101417.66;;;11.75;100.00
73817;BME280;62146;53.232;-1.304;2023-05-24T01:10:54;101425.03;;;11.73;100.00
73817;BME280;62146;53.232;-1.304;2023-05-24T01:16:08;101420.38;;;11.68;100.00
73817;BME280;62146;53.232;-1.304;2023-05-24T01:18:46;101427.19;;;11.64;100.00
73817;BME280;62146;53.232;-1.304;2023-05-24T01:29:11;101417.50;;;11.52;100.00
73817;BME280;62146;53.232;-1.304;2023-05-24T01:31:39;101417.75;;;11.51;100.00
73817;BME280;62146;53.232;-1.304;2023-05-24T01:34:06;101415.91;;;11.51;100.00
73817;BME280;62146;53.232;-1.304;2023-05-24T01:36:33;101415.28;;;11.49;100.00
73817;BME280;62146;53.232;-1.304;2023-05-24T01:38:59;101420.22;;;11.46;100.00
73817;BME280;62146;53.232;-1.304;2023-05-24T01:41:38;101430.66;;;11.47;100.00
73817;BME280;62146;53.232;-1.304;2023-05-24T01:44:14;101426.34;;;11.46;100.00
73817;BME280;62146;53.232;-1.304;2023-05-24T01:46:46;101424.31;;;11.48;100.00
73817;BME280;62146;53.232;-1.304;2023-05-24T01:49:26;101430.22;;;11.50;100.00
73817;BME280;62146;53.232;-1.304;2023-05-24T01:52:00;101432.88;;;11.50;100.00
73817;BME280;62146;53.232;-1.304;2023-05-24T01:54:30;101421.22;;;11.51;100.00
73817;BME280;62146;53.232;-1.304;2023-05-24T01:57:01;101424.44;;;11.53;100.00
73817;BME280;62146;53.232;-1.304;2023-05-24T01:59:31;101426.91;;;11.54;100.00
73817;BME280;62146;53.232;-1.304;2023-05-24T02:01:58;101420.31;;;11.57;100.00
73817;BME280;62146;53.232;-1.304;2023-05-24T02:04:26;101417.06;;;11.55;100.00
73817;BME280;62146;53.232;-1.304;2023-05-24T02:06:52;101416.03;;;11.56;100.00
73817;BME280;62146;53.232;-1.304;2023-05-24T02:09:19;101417.44;;;11.58;100.00
73817;BME280;62146;53.232;-1.304;2023-05-24T02:11:45;101419.31;;;11.58;100.00
73817;BME280;62146;53.232;-1.304;2023-05-24T02:14:12;101421.50;;;11.61;100.00
73817;BME280;62146;53.232;-1.304;2023-05-24T02:16:39;101427.03;;;11.59;100.00
73817;BME280;62146;53.232;-1.304;2023-05-24T02:19:08;101417.06;;;11.55;100.00
73817;BME280;62146;53.232;-1.304;2023-05-24T02:21:34;101432.41;;;11.53;100.00
73817;BME280;62146;53.232;-1.304;2023-05-24T02:24:01;101435.06;;;11.53;100.00
73817;BME280;62146;53.232;-1.304;2023-05-24T02:26:28;101431.22;;;11.49;100.00
73817;BME280;62146;53.232;-1.304;2023-05-24T02:28:54;101433.31;;;11.47;100.00
73817;BME280;62146;53.232;-1.304;2023-05-24T02:31:22;101434.13;;;11.48;100.00
73817;BME280;62146;53.232;-1.304;2023-05-24T02:33:49;101427.63;;;11.44;100.00
73817;BME280;62146;53.232;-1.304;2023-05-24T02:36:15;101432.13;;;11.43;100.00
73817;BME280;62146;53.232;-1.304;2023-05-24T02:38:42;101423.34;;;11.43;100.00
73817;BME280;62146;53.232;-1.304;2023-05-24T02:41:08;101420.22;;;11.46;100.00
73817;BME280;62146;53.232;-1.304;2023-05-24T02:43:37;101421.03;;;11.46;100.00
73817;BME280;62146;53.232;-1.304;2023-05-24T02:46:03;101416.34;;;11.48;100.00
73817;BME280;62146;53.232;-1.304;2023-05-24T02:48:30;101419.78;;;11.49;100.00
73817;BME280;62146;53.232;-1.304;2023-05-24T02:50:57;101409.97;;;11.49;100.00
73817;BME280;62146;53.232;-1.304;2023-05-24T02:53:24;101408.59;;;11.47;100.00
73817;BME280;62146;53.232;-1.304;2023-05-24T02:55:50;101411.44;;;11.45;100.00
73817;BME280;62146;53.232;-1.304;2023-05-24T02:58:17;101405.94;;;11.47;100.00
73817;BME280;62146;53.232;-1.304;2023-05-24T03:00:44;101404.28;;;11.46;100.00
73817;BME280;62146;53.232;-1.304;2023-05-24T03:03:11;101404.53;;;11.44;100.00
73817;BME280;62146;53.232;-1.304;2023-05-24T03:05:37;101413.16;;;11.40;100.00
73817;BME280;62146;53.232;-1.304;2023-05-24T03:08:04;101403.16;;;11.35;100.00
73817;BME280;62146;53.232;-1.304;2023-05-24T03:10:31;101401.38;;;11.29;100.00
73817;BME280;62146;53.232;-1.304;2023-05-24T03:12:58;101394.44;;;11.28;100.00
73817;BME280;62146;53.232;-1.304;2023-05-24T03:15:24;101410.81;;;11.25;100.00
73817;BME280;62146;53.232;-1.304;2023-05-24T03:17:52;101409.63;;;11.22;100.00
73817;BME280;62146;53.232;-1.304;2023-05-24T03:20:18;101409.03;;;11.20;100.00
73817;BME280;62146;53.232;-1.304;2023-05-24T03:22:46;101413.97;;;11.16;100.00
73817;BME280;62146;53.232;-1.304;2023-05-24T03:25:13;101408.66;;;11.16;100.00
73817;BME280;62146;53.232;-1.304;2023-05-24T03:27:39;101409.28;;;11.12;100.00
73817;BME280;62146;53.232;-1.304;2023-05-24T03:30:06;101411.16;;;11.11;100.00
73817;BME280;62146;53.232;-1.304;2023-05-24T03:32:33;101408.56;;;11.05;100.00
73817;BME280;62146;53.232;-1.304;2023-05-24T03:35:00;101410.19;;;11.06;100.00
73817;BME280;62146;53.232;-1.304;2023-05-24T03:37:27;101410.03;;;11.01;100.00
73817;BME280;62146;53.232;-1.304;2023-05-24T03:39:53;101409.03;;;10.96;100.00
73817;BME280;62146;53.232;-1.304;2023-05-24T03:42:20;101409.28;;;10.94;100.00
73817;BME280;62146;53.232;-1.304;2023-05-24T03:44:47;101400.69;;;10.92;100.00
73817;BME280;62146;53.232;-1.304;2023-05-24T03:47:14;101390.75;;;10.88;100.00
73817;BME280;62146;53.232;-1.304;2023-05-24T03:49:40;101379.75;;;10.84;100.00
73817;BME280;62146;53.232;-1.304;2023-05-24T03:52:07;101382.63;;;10.83;100.00
73817;BME280;62146;53.232;-1.304;2023-05-24T03:54:34;101382.47;;;10.78;100.00
73817;BME280;62146;53.232;-1.304;2023-05-24T03:57:00;101383.94;;;10.74;100.00
73817;BME280;62146;53.232;-1.304;2023-05-24T03:59:28;101388.41;;;10.73;100.00
73817;BME280;62146;53.232;-1.304;2023-05-24T04:01:56;101389.06;;;10.69;100.00
73817;BME280;62146;53.232;-1.304;2023-05-24T04:04:22;101385.22;;;10.65;100.00
73817;BME280;62146;53.232;-1.304;2023-05-24T04:06:49;101381.53;;;10.66;100.00
73817;BME280;62146;53.232;-1.304;2023-05-24T04:09:16;101385.88;;;10.61;100.00
73817;BME280;62146;53.232;-1.304;2023-05-24T04:11:42;101385.72;;;10.56;100.00
73817;BME280;62146;53.232;-1.304;2023-05-24T04:14:09;101387.56;;;10.55;100.00
73817;BME280;62146;53.232;-1.304;2023-05-24T04:16:36;101379.78;;;10.54;100.00
73817;BME280;62146;53.232;-1.304;2023-05-24T04:19:05;101384.94;;;10.49;100.00
73817;BME280;62146;53.232;-1.304;2023-05-24T04:21:32;101394.31;;;10.51;100.00
73817;BME280;62146;53.232;-1.304;2023-05-24T04:23:58;101395.53;;;10.49;100.00
73817;BME280;62146;53.232;-1.304;2023-05-24T04:26:29;101401.28;;;10.46;100.00
73817;BME280;62146;53.232;-1.304;2023-05-24T04:28:56;101401.88;;;10.48;100.00
73817;BME280;62146;53.232;-1.304;2023-05-24T04:31:23;101397.59;;;10.47;100.00
73817;BME280;62146;53.232;-1.304;2023-05-24T04:33:51;101392.50;;;10.45;100.00
73817;BME280;62146;53.232;-1.304;2023-05-24T04:36:18;101393.53;;;10.44;100.00
73817;BME280;62146;53.232;-1.304;2023-05-24T04:38:44;101404.78;;;10.40;100.00
73817;BME280;62146;53.232;-1.304;2023-05-24T04:41:11;101404.19;;;10.38;100.00
73817;BME280;62146;53.232;-1.304;2023-05-24T04:43:39;101411.09;;;10.39;100.00
73817;BME280;62146;53.232;-1.304;2023-05-24T04:46:05;101413.75;;;10.39;100.00
73817;BME280;62146;53.232;-1.304;2023-05-24T04:48:34;101409.47;;;10.38;100.00
73817;BME280;62146;53.232;-1.304;2023-05-24T04:51:01;101405.41;;;10.36;100.00
73817;BME280;62146;53.232;-1.304;2023-05-24T04:53:28;101402.56;;;10.37;100.00
73817;BME280;62146;53.232;-1.304;2023-05-24T04:55:55;101404.59;;;10.35;100.00
73817;BME280;62146;53.232;-1.304;2023-05-24T04:58:22;101410.94;;;10.34;100.00
73817;BME280;62146;53.232;-1.304;2023-05-24T05:00:48;101422.56;;;10.33;100.00
73817;BME280;62146;53.232;-1.304;2023-05-24T05:03:15;101419.13;;;10.33;100.00
73817;BME280;62146;53.232;-1.304;2023-05-24T05:05:42;101429.50;;;10.34;100.00
73817;BME280;62146;53.232;-1.304;2023-05-24T05:08:08;101436.41;;;10.35;100.00
73817;BME280;62146;53.232;-1.304;2023-05-24T05:10:35;101428.06;;;10.32;100.00
73817;BME280;62146;53.232;-1.304;2023-05-24T05:13:02;101431.34;;;10.34;100.00
73817;BME280;62146;53.232;-1.304;2023-05-24T05:15:28;101428.47;;;10.35;100.00
73817;BME280;62146;53.232;-1.304;2023-05-24T05:17:56;101423.38;;;10.34;100.00
73817;BME280;62146;53.232;-1.304;2023-05-24T05:20:23;101425.81;;;10.35;100.00
73817;BME280;62146;53.232;-1.304;2023-05-24T05:22:49;101430.13;;;10.36;100.00
73817;BME280;62146;53.232;-1.304;2023-05-24T05:25:16;101431.72;;;10.37;100.00
73817;BME280;62146;53.232;-1.304;2023-05-24T05:27:43;101445.00;;;10.37;100.00
73817;BME280;62146;53.232;-1.304;2023-05-24T05:30:10;101442.91;;;10.39;100.00
73817;BME280;62146;53.232;-1.304;2023-05-24T05:32:37;101434.78;;;10.41;100.00
73817;BME280;62146;53.232;-1.304;2023-05-24T05:35:04;101439.03;;;10.42;100.00
73817;BME280;62146;53.232;-1.304;2023-05-24T05:37:31;101442.31;;;10.43;100.00
73817;BME280;62146;53.232;-1.304;2023-05-24T05:39:57;101442.88;;;10.45;100.00
73817;BME280;62146;53.232;-1.304;2023-05-24T05:42:24;101435.31;;;10.49;100.00
73817;BME280;62146;53.232;-1.304;2023-05-24T05:44:51;101432.66;;;10.49;100.00
73817;BME280;62146;53.232;-1.304;2023-05-24T05:47:18;101436.75;;;10.51;100.00
73817;BME280;62146;53.232;-1.304;2023-05-24T05:49:44;101439.19;;;10.53;100.00
73817;BME280;62146;53.232;-1.304;2023-05-24T05:52:11;101437.72;;;10.57;100.00
73817;BME280;62146;53.232;-1.304;2023-05-24T05:54:38;101437.50;;;10.58;100.00
73817;BME280;62146;53.232;-1.304;2023-05-24T05:57:04;101443.19;;;10.62;100.00
73817;BME280;62146;53.232;-1.304;2023-05-24T05:59:33;101442.34;;;10.68;100.00
73817;BME280;62146;53.232;-1.304;2023-05-24T06:02:05;101439.03;;;10.72;100.00
73817;BME280;62146;53.232;-1.304;2023-05-24T06:04:32;101447.63;;;10.74;100.00
73817;BME280;62146;53.232;-1.304;2023-05-24T06:07:00;101460.22;;;10.78;100.00
73817;BME280;62146;53.232;-1.304;2023-05-24T06:09:26;101448.16;;;10.82;100.00
73817;BME280;62146;53.232;-1.304;2023-05-24T06:11:53;101453.84;;;10.86;100.00
73817;BME280;62146;53.232;-1.304;2023-05-24T06:14:19;101449.94;;;10.88;100.00
73817;BME280;62146;53.232;-1.304;2023-05-24T06:16:50;101442.97;;;10.94;100.00
73817;BME280;62146;53.232;-1.304;2023-05-24T06:19:17;101438.25;;;10.96;100.00
73817;BME280;62146;53.232;-1.304;2023-05-24T06:21:44;101446.59;;;10.99;100.00
73817;BME280;62146;53.232;-1.304;2023-05-24T06:24:16;101439.81;;;11.03;100.00
73817;BME280;62146;53.232;-1.304;2023-05-24T06:26:48;101442.03;;;11.06;100.00
73817;BME280;62146;53.232;-1.304;2023-05-24T06:29:15;101443.47;;;11.08;100.00
73817;BME280;62146;53.232;-1.304;2023-05-24T06:31:42;101440.97;;;11.13;100.00
73817;BME280;62146;53.232;-1.304;2023-05-24T06:34:10;101442.94;;;11.18;100.00
73817;BME280;62146;53.232;-1.304;2023-05-24T06:36:37;101440.44;;;11.23;100.00
73817;BME280;62146;53.232;-1.304;2023-05-24T06:39:08;101449.59;;;11.26;100.00
73817;BME280;62146;53.232;-1.304;2023-05-24T06:41:36;101450.59;;;11.32;100.00
73817;BME280;62146;53.232;-1.304;2023-05-24T06:44:03;101451.53;;;11.37;100.00
73817;BME280;62146;53.232;-1.304;2023-05-24T06:46:29;101447.25;;;11.43;100.00
73817;BME280;62146;53.232;-1.304;2023-05-24T06:48:57;101457.22;;;11.47;100.00
73817;BME280;62146;53.232;-1.304;2023-05-24T06:51:23;101450.19;;;11.52;100.00
73817;BME280;62146;53.232;-1.304;2023-05-24T06:53:50;101455.44;;;11.59;100.00
73817;BME280;62146;53.232;-1.304;2023-05-24T06:56:17;101453.75;;;11.64;100.00
73817;BME280;62146;53.232;-1.304;2023-05-24T06:58:44;101452.88;;;11.70;100.00
73817;BME280;62146;53.232;-1.304;2023-05-24T07:01:10;101452.78;;;11.77;100.00
73817;BME280;62146;53.232;-1.304;2023-05-24T07:03:37;101458.03;;;11.83;100.00
73817;BME280;62146;53.232;-1.304;2023-05-24T07:06:04;101451.63;;;11.90;100.00
73817;BME280;62146;53.232;-1.304;2023-05-24T07:08:30;101449.47;;;11.99;100.00
73817;BME280;62146;53.232;-1.304;2023-05-24T07:10:57;101455.88;;;12.09;100.00
73817;BME280;62146;53.232;-1.304;2023-05-24T07:13:23;101455.13;;;12.20;100.00
73817;BME280;62146;53.232;-1.304;2023-05-24T07:15:50;101447.66;;;12.28;100.00
73817;BME280;62146;53.232;-1.304;2023-05-24T07:18:17;101458.34;;;12.39;100.00
73817;BME280;62146;53.232;-1.304;2023-05-24T07:20:43;101458.41;;;12.51;100.00
73817;BME280;62146;53.232;-1.304;2023-05-24T07:23:10;101457.38;;;12.63;100.00
73817;BME280;62146;53.232;-1.304;2023-05-24T07:25:37;101462.56;;;12.76;100.00
73817;BME280;62146;53.232;-1.304;2023-05-24T07:28:04;101469.31;;;12.89;100.00
73817;BME280;62146;53.232;-1.304;2023-05-24T07:30:31;101459.03;;;13.04;100.00
73817;BME280;62146;53.232;-1.304;2023-05-24T07:32:58;101463.13;;;13.18;100.00
73817;BME280;62146;53.232;-1.304;2023-05-24T07:35:25;101464.03;;;13.35;100.00
73817;BME280;62146;53.232;-1.304;2023-05-24T07:37:54;101457.44;;;13.48;100.00
73817;BME280;62146;53.232;-1.304;2023-05-24T07:40:21;101456.75;;;13.64;100.00
73817;BME280;62146;53.232;-1.304;2023-05-24T07:42:48;101457.06;;;13.79;100.00
73817;BME280;62146;53.232;-1.304;2023-05-24T07:45:15;101453.72;;;13.94;100.00
73817;BME280;62146;53.232;-1.304;2023-05-24T07:47:43;101455.03;;;14.08;100.00
73817;BME280;62146;53.232;-1.304;2023-05-24T07:50:10;101462.31;;;14.24;100.00
73817;BME280;62146;53.232;-1.304;2023-05-24T07:52:37;101464.25;;;14.40;100.00
73817;BME280;62146;53.232;-1.304;2023-05-24T07:55:05;101458.69;;;14.57;100.00
73817;BME280;62146;53.232;-1.304;2023-05-24T07:57:31;101452.56;;;14.73;100.00
73817;BME280;62146;53.232;-1.304;2023-05-24T07:59:58;101454.22;;;14.90;100.00
73817;BME280;62146;53.232;-1.304;2023-05-24T08:02:32;101442.78;;;15.06;100.00
73817;BME280;62146;53.232;-1.304;2023-05-24T08:04:59;101441.69;;;15.23;100.00
73817;BME280;62146;53.232;-1.304;2023-05-24T08:07:25;101437.72;;;15.42;100.00
73817;BME280;62146;53.232;-1.304;2023-05-24T08:09:52;101442.31;;;15.62;100.00
73817;BME280;62146;53.232;-1.304;2023-05-24T08:12:19;101444.75;;;15.85;100.00
73817;BME280;62146;53.232;-1.304;2023-05-24T08:14:45;101453.59;;;16.07;100.00
73817;BME280;62146;53.232;-1.304;2023-05-24T08:17:12;101453.63;;;16.28;100.00
73817;BME280;62146;53.232;-1.304;2023-05-24T08:19:38;101451.97;;;16.48;100.00
73817;BME280;62146;53.232;-1.304;2023-05-24T08:22:05;101459.97;;;16.69;100.00
73817;BME280;62146;53.232;-1.304;2023-05-24T08:24:32;101459.34;;;16.88;100.00
73817;BME280;62146;53.232;-1.304;2023-05-24T08:26:58;101462.78;;;17.10;100.00
73817;BME280;62146;53.232;-1.304;2023-05-24T08:29:25;101457.59;;;17.29;100.00
73817;BME280;62146;53.232;-1.304;2023-05-24T08:31:53;101456.38;;;17.46;100.00
73817;BME280;62146;53.232;-1.304;2023-05-24T08:34:20;101462.66;;;17.67;100.00
73817;BME280;62146;53.232;-1.304;2023-05-24T08:36:46;101464.94;;;17.89;100.00
73817;BME280;62146;53.232;-1.304;2023-05-24T08:39:13;101461.84;;;18.07;100.00
73817;BME280;62146;53.232;-1.304;2023-05-24T08:41:40;101449.88;;;18.29;100.00
73817;BME280;62146;53.232;-1.304;2023-05-24T08:44:06;101448.84;;;18.50;100.00
73817;BME280;62146;53.232;-1.304;2023-05-24T08:46:34;101444.56;;;18.68;100.00
73817;BME280;62146;53.232;-1.304;2023-05-24T08:49:02;101451.91;;;18.87;100.00
73817;BME280;62146;53.232;-1.304;2023-05-24T08:51:30;101457.56;;;19.05;100.00
73817;BME280;62146;53.232;-1.304;2023-05-24T08:54:00;101452.97;;;19.26;100.00
73817;BME280;62146;53.232;-1.304;2023-05-24T08:56:27;101459.13;;;19.46;100.00
73817;BME280;62146;53.232;-1.304;2023-05-24T08:58:56;101451.84;;;19.66;100.00
73817;BME280;62146;53.232;-1.304;2023-05-24T09:01:24;101453.44;;;19.86;100.00
73817;BME280;62146;53.232;-1.304;2023-05-24T09:03:54;101449.31;;;20.09;100.00
73817;BME280;62146;53.232;-1.304;2023-05-24T09:06:21;101457.84;;;20.30;100.00
73817;BME280;62146;53.232;-1.304;2023-05-24T09:08:48;101457.75;;;20.50;100.00
73817;BME280;62146;53.232;-1.304;2023-05-24T09:11:18;101455.25;;;20.68;100.00
73817;BME280;62146;53.232;-1.304;2023-05-24T09:13:44;101445.69;;;20.85;100.00
73817;BME280;62146;53.232;-1.304;2023-05-24T09:16:11;101443.38;;;21.02;100.00
73817;BME280;62146;53.232;-1.304;2023-05-24T09:18:39;101434.91;;;21.18;100.00
73817;BME280;62146;53.232;-1.304;2023-05-24T09:21:09;101440.44;;;21.36;100.00
73817;BME280;62146;53.232;-1.304;2023-05-24T09:23:36;101448.59;;;21.54;100.00
73817;BME280;62146;53.232;-1.304;2023-05-24T09:26:07;101444.09;;;21.73;100.00
73817;BME280;62146;53.232;-1.304;2023-05-24T09:28:36;101438.53;;;21.88;100.00
73817;BME280;62146;53.232;-1.304;2023-05-24T09:31:03;101440.50;;;22.05;100.00
73817;BME280;62146;53.232;-1.304;2023-05-24T09:33:34;101431.63;;;22.23;100.00
73817;BME280;62146;53.232;-1.304;2023-05-24T09:36:03;101436.25;;;22.41;100.00
73817;BME280;62146;53.232;-1.304;2023-05-24T09:38:30;101425.44;;;22.59;100.00
73817;BME280;62146;53.232;-1.304;2023-05-24T09:41:05;101421.41;;;22.75;100.00
73817;BME280;62146;53.232;-1.304;2023-05-24T09:43:33;101416.06;;;22.88;100.00
73817;BME280;62146;53.232;-1.304;2023-05-24T09:46:03;101415.34;;;23.01;100.00
73817;BME280;62146;53.232;-1.304;2023-05-24T09:48:31;101413.97;;;23.16;100.00
73817;BME280;62146;53.232;-1.304;2023-05-24T09:51:07;101420.44;;;23.34;100.00
73817;BME280;62146;53.232;-1.304;2023-05-24T09:53:37;101419.09;;;23.49;100.00
73817;BME280;62146;53.232;-1.304;2023-05-24T09:56:06;101411.00;;;23.63;100.00
73817;BME280;62146;53.232;-1.304;2023-05-24T09:58:38;101410.97;;;23.76;100.00
73817;BME280;62146;53.232;-1.304;2023-05-24T10:01:06;101408.28;;;23.89;100.00
73817;BME280;62146;53.232;-1.304;2023-05-24T10:03:34;101405.75;;;24.06;100.00
73817;BME280;62146;53.232;-1.304;2023-05-24T10:06:04;101403.88;;;24.19;100.00
73817;BME280;62146;53.232;-1.304;2023-05-24T10:08:33;101400.22;;;24.37;100.00
73817;BME280;62146;53.232;-1.304;2023-05-24T10:11:01;101407.72;;;24.53;100.00
73817;BME280;62146;53.232;-1.304;2023-05-24T10:13:31;101402.75;;;24.69;100.00
73817;BME280;62146;53.232;-1.304;2023-05-24T10:15:58;101408.13;;;24.82;100.00
73817;BME280;62146;53.232;-1.304;2023-05-24T10:18:24;101405.47;;;24.90;100.00
73817;BME280;62146;53.232;-1.304;2023-05-24T10:20:53;101407.97;;;25.00;100.00
73817;BME280;62146;53.232;-1.304;2023-05-24T10:23:21;101399.25;;;25.11;100.00
73817;BME280;62146;53.232;-1.304;2023-05-24T10:28:29;101401.63;;;25.34;100.00
73817;BME280;62146;53.232;-1.304;2023-05-24T10:31:14;101393.25;;;25.44;100.00
73817;BME280;62146;53.232;-1.304;2023-05-24T10:33:43;101386.72;;;25.54;100.00
73817;BME280;62146;53.232;-1.304;2023-05-24T10:36:13;101389.19;;;25.63;100.00
73817;BME280;62146;53.232;-1.304;2023-05-24T10:38:41;101396.09;;;25.78;100.00
73817;BME280;62146;53.232;-1.304;2023-05-24T10:41:10;101377.25;;;25.89;100.00
73817;BME280;62146;53.232;-1.304;2023-05-24T10:43:38;101388.81;;;26.03;100.00
73817;BME280;62146;53.232;-1.304;2023-05-24T10:46:07;101384.72;;;26.14;100.00
73817;BME280;62146;53.232;-1.304;2023-05-24T10:48:35;101380.75;;;26.28;100.00
73817;BME280;62146;53.232;-1.304;2023-05-24T10:51:36;101385.41;;;26.44;100.00
73817;BME280;62146;53.232;-1.304;2023-05-24T10:54:17;101378.94;;;26.07;100.00
73817;BME280;62146;53.232;-1.304;2023-05-24T10:56:47;101371.56;;;25.09;100.00
73817;BME280;62146;53.232;-1.304;2023-05-24T11:01:57;101375.47;;;25.17;100.00
73817;BME280;62146;53.232;-1.304;2023-05-24T11:04:25;101366.03;;;25.14;100.00
73817;BME280;62146;53.232;-1.304;2023-05-24T11:07:06;101366.22;;;25.18;100.00
73817;BME280;62146;53.232;-1.304;2023-05-24T11:09:39;101379.28;;;25.16;100.00
73817;BME280;62146;53.232;-1.304;2023-05-24T11:12:16;101371.25;;;25.02;100.00
73817;BME280;62146;53.232;-1.304;2023-05-24T11:14:48;101363.16;;;24.89;100.00
73817;BME280;62146;53.232;-1.304;2023-05-24T11:17:15;101361.75;;;24.92;100.00
73817;BME280;62146;53.232;-1.304;2023-05-24T11:19:53;101362.69;;;24.87;100.00
73817;BME280;62146;53.232;-1.304;2023-05-24T11:22:23;101368.91;;;24.88;100.00
73817;BME280;62146;53.232;-1.304;2023-05-24T11:24:51;101370.06;;;24.95;100.00
73817;BME280;62146;53.232;-1.304;2023-05-24T11:27:18;101362.28;;;25.02;100.00
73817;BME280;62146;53.232;-1.304;2023-05-24T11:29:46;101350.59;;;25.01;100.00
73817;BME280;62146;53.232;-1.304;2023-05-24T11:32:15;101360.13;;;25.21;100.00
73817;BME280;62146;53.232;-1.304;2023-05-24T11:34:43;101362.97;;;25.37;100.00
73817;BME280;62146;53.232;-1.304;2023-05-24T11:37:11;101357.91;;;25.44;100.00
73817;BME280;62146;53.232;-1.304;2023-05-24T11:39:42;101370.41;;;25.54;100.00
73817;BME280;62146;53.232;-1.304;2023-05-24T11:42:08;101369.59;;;25.45;100.00
73817;BME280;62146;53.232;-1.304;2023-05-24T11:44:35;101368.78;;;25.44;100.00
73817;BME280;62146;53.232;-1.304;2023-05-24T11:47:06;101365.91;;;25.49;100.00
73817;BME280;62146;53.232;-1.304;2023-05-24T11:49:33;101368.31;;;25.51;100.00
73817;BME280;62146;53.232;-1.304;2023-05-24T11:52:00;101358.47;;;25.63;100.00
73817;BME280;62146;53.232;-1.304;2023-05-24T11:54:28;101367.38;;;25.55;100.00
73817;BME280;62146;53.232;-1.304;2023-05-24T11:56:55;101365.16;;;25.57;100.00
73817;BME280;62146;53.232;-1.304;2023-05-24T11:59:24;101366.56;;;25.54;100.00
73817;BME280;62146;53.232;-1.304;2023-05-24T12:02:00;101367.25;;;25.60;100.00
73817;BME280;62146;53.232;-1.304;2023-05-24T12:04:28;101363.59;;;25.64;100.00
73817;BME280;62146;53.232;-1.304;2023-05-24T12:06:55;101363.75;;;25.59;100.00
73817;BME280;62146;53.232;-1.304;2023-05-24T12:09:22;101366.31;;;25.73;100.00
73817;BME280;62146;53.232;-1.304;2023-05-24T12:11:50;101357.59;;;25.92;100.00
73817;BME280;62146;53.232;-1.304;2023-05-24T12:14:19;101349.59;;;25.96;100.00
73817;BME280;62146;53.232;-1.304;2023-05-24T12:16:45;101355.13;;;26.12;100.00
73817;BME280;62146;53.232;-1.304;2023-05-24T12:19:17;101360.56;;;26.37;100.00
73817;BME280;62146;53.232;-1.304;2023-05-24T12:21:58;101353.84;;;26.43;100.00
73817;BME280;62146;53.232;-1.304;2023-05-24T12:24:26;101350.47;;;26.63;100.00
73817;BME280;62146;53.232;-1.304;2023-05-24T12:26:58;101355.94;;;26.80;100.00
73817;BME280;62146;53.232;-1.304;2023-05-24T12:29:32;101346.81;;;26.76;100.00
73817;BME280;62146;53.232;-1.304;2023-05-24T12:31:59;101346.00;;;26.84;100.00
73817;BME280;62146;53.232;-1.304;2023-05-24T12:34:26;101338.78;;;26.88;100.00
73817;BME280;62146;53.232;-1.304;2023-05-24T12:36:54;101342.56;;;27.20;100.00
73817;BME280;62146;53.232;-1.304;2023-05-24T12:39:23;101351.69;;;27.24;100.00
73817;BME280;62146;53.232;-1.304;2023-05-24T12:41:52;101357.31;;;27.11;100.00
73817;BME280;62146;53.232;-1.304;2023-05-24T12:44:30;101357.88;;;26.71;100.00
73817;BME280;62146;53.232;-1.304;2023-05-24T12:46:57;101369.69;;;26.41;100.00
73817;BME280;62146;53.232;-1.304;2023-05-24T12:49:25;101366.47;;;26.23;100.00
73817;BME280;62146;53.232;-1.304;2023-05-24T12:51:53;101361.47;;;26.08;100.00